Time;durP1;ratioP1;P1;durP2;ratioP2;P2;SDS_P1;SDS_P2;PMS_P1;PMS_P2;Temp;Humidity;BMP_temperature;BMP_pressure;BME280_temperature;BME280_humidity;BME280_pressure;Samples;Min_cycle;Max_cycle;Signal;HPM_P1;HPM_P2
2022/06/24 00:02:16;;;;;;;;;;;24.10;55.10;;;;;;5018950;28;20338;-80
2022/06/24 00:04:49;;;;;;;;;;;24.10;54.80;;;;;;5030454;28;20071;-80
2022/06/24 00:07:15;;;;;;;;;;;24.10;54.80;;;;;;5036135;28;19913;-80
2022/06/24 00:09:41;;;;;;;;;;;24.10;54.80;;;;;;5038268;28;19913;-80
2022/06/24 00:12:08;;;;;;;;;;;24.10;54.40;;;;;;5039554;28;19988;-80
2022/06/24 00:14:38;;;;;;;;;;;24.10;54.90;;;;;;5042106;28;19923;-78
2022/06/24 00:17:05;;;;;;;;;;;24.20;53.40;;;;;;5048775;28;19913;-79
2022/06/24 00:19:31;;;;;;;;;;;24.30;53.90;;;;;;5043174;28;19921;-80
2022/06/24 00:21:58;;;;;;;;;;;24.30;53.60;;;;;;5039143;28;19921;-78
2022/06/24 00:24:24;;;;;;;;;;;24.30;54.60;;;;;;5016621;28;19993;-79
2022/06/24 00:26:49;;;;;;;;;;;24.30;53.10;;;;;;5031791;28;20016;-80
2022/06/24 00:29:18;;;;;;;;;;;24.30;51.30;;;;;;5034069;28;20017;-79
2022/06/24 00:32:00;;;;;;;;;;;24.50;50.70;;;;;;5035399;28;19913;-80
2022/06/24 00:34:25;;;;;;;;;;;24.50;51.40;;;;;;5032406;28;19928;-80
2022/06/24 00:36:51;;;;;;;;;;;24.40;51.40;;;;;;5030029;28;19940;-79
2022/06/24 00:39:16;;;;;;;;;;;24.40;51.10;;;;;;5010847;28;20361;-80
2022/06/24 00:41:42;;;;;;;;;;;24.40;50.80;;;;;;5032880;28;20341;-78
2022/06/24 00:44:10;;;;;;;;;;;24.40;51.20;;;;;;5017144;28;19940;-80
2022/06/24 00:46:37;;;;;;;;;;;24.50;50.30;;;;;;5034741;28;19921;-80
2022/06/24 00:49:04;;;;;;;;;;;24.40;50.90;;;;;;5016155;28;19923;-80
2022/06/24 00:51:31;;;;;;;;;;;24.50;51.40;;;;;;5015966;28;19921;-79
2022/06/24 00:53:57;;;;;;;;;;;24.50;49.90;;;;;;5012332;28;19977;-80
2022/06/24 00:56:25;;;;;;;;;;;24.60;49.40;;;;;;5010418;28;19952;-80
2022/06/24 00:58:54;;;;;;;;;;;24.80;49.00;;;;;;5011613;28;20103;-79
2022/06/24 01:01:25;;;;;;;;;;;24.80;49.70;;;;;;5019125;28;19921;-80
2022/06/24 01:03:53;;;;;;;;;;;24.90;49.50;;;;;;5023400;28;20381;-80
2022/06/24 01:06:19;;;;;;;;;;;25.10;48.70;;;;;;5012060;28;19952;-79
2022/06/24 01:08:45;;;;;;;;;;;25.10;49.40;;;;;;5026776;28;19957;-79
2022/06/24 01:11:11;;;;;;;;;;;25.10;49.60;;;;;;5016333;28;19913;-79
2022/06/24 01:13:36;;;;;;;;;;;25.00;50.20;;;;;;5012120;28;19988;-79
2022/06/24 01:16:02;;;;;;;;;;;25.10;52.90;;;;;;5032616;28;19917;-79
2022/06/24 01:18:27;;;;;;;;;;;25.00;53.90;;;;;;5032406;28;19913;-80
2022/06/24 01:20:53;;;;;;;;;;;24.90;56.00;;;;;;5023292;28;19960;-80
2022/06/24 01:23:23;;;;;;;;;;;24.80;57.60;;;;;;5031288;28;19940;-80
2022/06/24 01:25:48;;;;;;;;;;;24.60;60.80;;;;;;5032398;28;19919;-80
2022/06/24 01:28:14;;;;;;;;;;;24.50;63.30;;;;;;5027805;28;20388;-81
2022/06/24 01:30:39;;;;;;;;;;;24.30;64.10;;;;;;5030852;28;19921;-81
2022/06/24 01:33:06;;;;;;;;;;;24.30;64.60;;;;;;5015294;28;20277;-80
2022/06/24 01:35:32;;;;;;;;;;;24.00;65.60;;;;;;5006737;28;20556;-79
2022/06/24 01:37:57;;;;;;;;;;;24.00;66.10;;;;;;5015086;28;19914;-80
2022/06/24 01:40:23;;;;;;;;;;;23.90;66.60;;;;;;5014176;28;19917;-79
2022/06/24 01:42:48;;;;;;;;;;;23.90;67.10;;;;;;5032108;28;19917;-80
2022/06/24 01:45:14;;;;;;;;;;;23.70;67.70;;;;;;5015069;28;20227;-79
2022/06/24 01:47:39;;;;;;;;;;;23.70;68.00;;;;;;5020453;28;20141;-77
2022/06/24 01:50:05;;;;;;;;;;;23.70;68.20;;;;;;5036574;28;19914;-79
2022/06/24 01:52:30;;;;;;;;;;;23.60;68.60;;;;;;5044112;28;19921;-79
2022/06/24 01:54:56;;;;;;;;;;;23.50;68.90;;;;;;5023574;28;19913;-79
2022/06/24 01:57:21;;;;;;;;;;;23.50;69.40;;;;;;5017262;28;19924;-78
2022/06/24 01:59:47;;;;;;;;;;;23.40;69.60;;;;;;5035277;28;20270;-79
2022/06/24 02:02:12;;;;;;;;;;;23.40;69.70;;;;;;5037046;28;19917;-79
2022/06/24 02:04:38;;;;;;;;;;;23.30;70.00;;;;;;5015149;28;19913;-79
2022/06/24 02:07:03;;;;;;;;;;;23.30;70.00;;;;;;5026061;28;20003;-78
2022/06/24 02:09:29;;;;;;;;;;;23.20;70.50;;;;;;5030859;28;19913;-79
2022/06/24 02:14:39;;;;;;;;;;;23.20;71.20;;;;;;5034114;28;19924;-80
2022/06/24 02:17:04;;;;;;;;;;;23.10;71.60;;;;;;5011954;28;20007;-78
2022/06/24 02:19:30;;;;;;;;;;;23.10;71.50;;;;;;5031429;28;20444;-80
2022/06/24 02:21:55;;;;;;;;;;;23.10;71.40;;;;;;5031689;28;19920;-80
2022/06/24 02:24:20;;;;;;;;;;;23.10;71.50;;;;;;5033111;28;19972;-80
2022/06/24 02:26:46;;;;;;;;;;;23.10;71.60;;;;;;5030758;28;19913;-81
2022/06/24 02:29:12;;;;;;;;;;;23.10;72.10;;;;;;5012460;28;19999;-80
2022/06/24 02:31:38;;;;;;;;;;;23.00;72.60;;;;;;5014982;28;19913;-80
2022/06/24 02:34:03;;;;;;;;;;;23.00;72.70;;;;;;5014952;28;20046;-79
2022/06/24 02:36:29;;;;;;;;;;;23.00;73.20;;;;;;5014394;28;20365;-78
2022/06/24 02:38:54;;;;;;;;;;;23.00;73.60;;;;;;5030764;28;20019;-80
2022/06/24 02:41:20;;;;;;;;;;;23.00;73.90;;;;;;5014793;28;20399;-80
2022/06/24 02:43:45;;;;;;;;;;;22.90;74.10;;;;;;5030173;28;20000;-78
2022/06/24 02:46:16;;;;;;;;;;;22.90;74.30;;;;;;5013683;28;19913;-79
2022/06/24 02:48:42;;;;;;;;;;;22.90;74.60;;;;;;5007271;28;19921;-80
2022/06/24 02:51:09;;;;;;;;;;;22.90;74.70;;;;;;5032151;28;19913;-79
2022/06/24 02:53:34;;;;;;;;;;;22.80;75.30;;;;;;5014711;28;19925;-79
2022/06/24 02:56:04;;;;;;;;;;;22.80;75.40;;;;;;5032118;28;19929;-79
2022/06/24 02:58:31;;;;;;;;;;;22.70;75.60;;;;;;5016047;28;20480;-78
2022/06/24 03:00:56;;;;;;;;;;;22.70;75.90;;;;;;5015052;28;19945;-79
2022/06/24 03:03:22;;;;;;;;;;;22.70;75.90;;;;;;5033139;28;19924;-78
2022/06/24 03:05:48;;;;;;;;;;;22.70;76.00;;;;;;5037479;28;19932;-79
2022/06/24 03:08:15;;;;;;;;;;;22.70;76.10;;;;;;5017678;28;19971;-77
2022/06/24 03:10:41;;;;;;;;;;;22.80;75.80;;;;;;5036019;28;19914;-77
2022/06/24 03:13:07;;;;;;;;;;;22.70;75.80;;;;;;5024706;28;19997;-78
2022/06/24 03:15:33;;;;;;;;;;;22.70;76.00;;;;;;5027938;28;19909;-78
2022/06/24 03:17:59;;;;;;;;;;;22.70;76.00;;;;;;5023773;28;19914;-78
2022/06/24 03:20:24;;;;;;;;;;;22.60;76.20;;;;;;5020809;22;20033;-76
2022/06/24 03:22:50;;;;;;;;;;;22.70;75.90;;;;;;4993125;28;20005;-77
2022/06/24 03:25:15;;;;;;;;;;;22.70;76.20;;;;;;4986067;28;20423;-77
2022/06/24 03:27:41;;;;;;;;;;;22.80;75.60;;;;;;4969460;28;19918;-76
2022/06/24 03:30:07;;;;;;;;;;;22.80;76.50;;;;;;4987145;28;19921;-75
2022/06/24 03:32:33;;;;;;;;;;;22.80;78.20;;;;;;4987312;28;19957;-76
2022/06/24 03:34:59;;;;;;;;;;;22.80;78.20;;;;;;4989934;28;19982;-77
2022/06/24 03:37:25;;;;;;;;;;;22.60;79.30;;;;;;4987732;28;20421;-76
2022/06/24 03:39:50;;;;;;;;;;;22.40;80.20;;;;;;4987157;28;19985;-78
2022/06/24 03:42:16;;;;;;;;;;;22.30;81.20;;;;;;4990473;28;19924;-77
2022/06/24 03:44:41;;;;;;;;;;;22.20;81.80;;;;;;4987991;28;19998;-76
2022/06/24 03:47:06;;;;;;;;;;;22.10;82.30;;;;;;4983068;28;20430;-75
2022/06/24 03:49:32;;;;;;;;;;;22.10;82.80;;;;;;4986639;28;19921;-76
2022/06/24 03:51:58;;;;;;;;;;;22.00;82.40;;;;;;4993819;28;20012;-78
2022/06/24 03:54:23;;;;;;;;;;;22.00;83.20;;;;;;4995382;28;19921;-78
2022/06/24 03:56:49;;;;;;;;;;;21.90;83.30;;;;;;4987585;28;20341;-77
2022/06/24 03:59:14;;;;;;;;;;;21.80;83.40;;;;;;4993426;28;19917;-76
2022/06/24 04:01:40;;;;;;;;;;;21.80;83.80;;;;;;4994308;28;19925;-78
2022/06/24 04:04:05;;;;;;;;;;;21.80;84.20;;;;;;4995731;28;19921;-79
2022/06/24 04:06:31;;;;;;;;;;;21.80;83.70;;;;;;4973971;28;19949;-79
2022/06/24 04:08:56;;;;;;;;;;;21.90;83.60;;;;;;4974640;28;19921;-77
2022/06/24 04:11:22;;;;;;;;;;;21.80;83.60;;;;;;4978332;28;20319;-79
2022/06/24 04:13:48;;;;;;;;;;;21.90;84.30;;;;;;4996637;28;19976;-78
2022/06/24 04:16:13;;;;;;;;;;;21.90;84.10;;;;;;4994620;28;19984;-79
2022/06/24 04:18:39;;;;;;;;;;;21.70;84.10;;;;;;4972814;28;19949;-77
2022/06/24 04:21:10;;;;;;;;;;;21.80;84.40;;;;;;4974863;28;20027;-77
2022/06/24 04:23:36;;;;;;;;;;;21.80;84.20;;;;;;4987389;28;19925;-77
2022/06/24 04:26:01;;;;;;;;;;;21.70;84.60;;;;;;4996659;28;19922;-77
2022/06/24 04:28:27;;;;;;;;;;;21.70;84.60;;;;;;4975766;28;19914;-78
2022/06/24 04:30:52;;;;;;;;;;;21.70;84.80;;;;;;4986580;28;20040;-78
2022/06/24 04:33:18;;;;;;;;;;;21.60;84.90;;;;;;4975445;28;19914;-79
2022/06/24 04:35:43;;;;;;;;;;;21.60;85.00;;;;;;4989104;28;20335;-78
2022/06/24 04:38:09;;;;;;;;;;;21.70;84.90;;;;;;4988264;28;19914;-77
2022/06/24 04:40:34;;;;;;;;;;;21.60;85.30;;;;;;4987981;28;20009;-77
2022/06/24 04:43:00;;;;;;;;;;;21.60;85.60;;;;;;4987318;28;19932;-78
2022/06/24 04:45:26;;;;;;;;;;;21.50;85.90;;;;;;4986684;28;19964;-77
2022/06/24 04:47:51;;;;;;;;;;;21.60;85.80;;;;;;4974073;28;19918;-78
2022/06/24 04:50:16;;;;;;;;;;;21.60;84.60;;;;;;4990819;28;19953;-77
2022/06/24 04:52:42;;;;;;;;;;;21.60;85.10;;;;;;4993630;28;19921;-77
2022/06/24 04:55:08;;;;;;;;;;;21.50;85.40;;;;;;4988181;28;19921;-79
2022/06/24 04:57:33;;;;;;;;;;;21.60;85.50;;;;;;4991895;28;20103;-77
2022/06/24 04:59:59;;;;;;;;;;;21.60;84.80;;;;;;4988654;28;20294;-78
2022/06/24 05:02:25;;;;;;;;;;;21.60;85.10;;;;;;4990334;28;19917;-77
2022/06/24 05:04:50;;;;;;;;;;;21.60;85.10;;;;;;4971316;28;20247;-77
2022/06/24 05:07:16;;;;;;;;;;;21.60;85.00;;;;;;4991812;28;20290;-78
2022/06/24 05:09:42;;;;;;;;;;;21.60;84.80;;;;;;4971838;28;19925;-81
2022/06/24 05:12:08;;;;;;;;;;;21.50;85.10;;;;;;4991776;28;19997;-78
2022/06/24 05:14:34;;;;;;;;;;;21.50;85.10;;;;;;4986278;28;19914;-78
2022/06/24 05:16:59;;;;;;;;;;;21.50;84.90;;;;;;4980690;28;20416;-78
2022/06/24 05:19:25;;;;;;;;;;;21.40;85.60;;;;;;4989379;28;20499;-78
2022/06/24 05:21:51;;;;;;;;;;;21.40;85.70;;;;;;4984780;28;19918;-77
2022/06/24 05:24:16;;;;;;;;;;;21.30;86.20;;;;;;4996740;28;19921;-77
2022/06/24 05:26:42;;;;;;;;;;;21.30;86.60;;;;;;4986509;28;19918;-77
2022/06/24 05:29:08;;;;;;;;;;;21.30;86.60;;;;;;4987521;28;19918;-77
2022/06/24 05:31:34;;;;;;;;;;;21.30;86.60;;;;;;4970681;28;19914;-77
2022/06/24 05:33:59;;;;;;;;;;;21.30;86.50;;;;;;4993751;28;20362;-76
2022/06/24 05:36:25;;;;;;;;;;;21.30;86.60;;;;;;4976987;28;19920;-77
2022/06/24 05:38:50;;;;;;;;;;;21.30;86.90;;;;;;4987284;28;20331;-78
2022/06/24 05:41:16;;;;;;;;;;;21.30;87.00;;;;;;4990355;28;19914;-77
2022/06/24 05:43:43;;;;;;;;;;;21.40;87.00;;;;;;4991552;28;20396;-76
2022/06/24 05:46:09;;;;;;;;;;;21.50;86.90;;;;;;4984468;28;19952;-77
2022/06/24 05:48:35;;;;;;;;;;;21.50;86.70;;;;;;4984682;28;19960;-74
2022/06/24 05:51:06;;;;;;;;;;;21.50;86.40;;;;;;4975280;28;19914;-76
2022/06/24 05:56:16;;;;;;;;;;;21.40;86.50;;;;;;4991954;28;19920;-76
2022/06/24 05:58:42;;;;;;;;;;;21.40;86.50;;;;;;4993643;28;19910;-78
2022/06/24 06:01:11;;;;;;;;;;;21.40;86.50;;;;;;4989401;28;19968;-78
2022/06/24 06:03:36;;;;;;;;;;;21.50;86.50;;;;;;4989565;28;20310;-77
2022/06/24 06:06:02;;;;;;;;;;;21.40;86.50;;;;;;4974079;28;19921;-78
2022/06/24 06:08:27;;;;;;;;;;;21.40;86.80;;;;;;4985631;28;19933;-78
2022/06/24 06:10:53;;;;;;;;;;;21.30;86.80;;;;;;4993517;28;19921;-78
2022/06/24 06:13:18;;;;;;;;;;;21.30;86.90;;;;;;4994092;28;19989;-77
2022/06/24 06:15:45;;;;;;;;;;;21.50;87.20;;;;;;4993786;28;20802;-78
2022/06/24 06:18:10;;;;;;;;;;;21.40;87.30;;;;;;4972382;28;19921;-76
2022/06/24 06:20:35;;;;;;;;;;;21.50;87.20;;;;;;4990401;28;19918;-78
2022/06/24 06:23:01;;;;;;;;;;;21.50;87.40;;;;;;4996457;28;19922;-78
2022/06/24 06:25:26;;;;;;;;;;;21.50;87.10;;;;;;5003336;28;19917;-78
2022/06/24 06:27:52;;;;;;;;;;;21.50;87.00;;;;;;4983799;28;20024;-77
2022/06/24 06:30:17;;;;;;;;;;;21.50;87.20;;;;;;4993012;28;19914;-78
2022/06/24 06:32:43;;;;;;;;;;;21.50;87.50;;;;;;4976060;28;19914;-78
2022/06/24 06:35:09;;;;;;;;;;;21.40;87.60;;;;;;4991480;28;19914;-77
2022/06/24 06:37:34;;;;;;;;;;;21.50;87.10;;;;;;4969707;28;20016;-77
2022/06/24 06:40:00;;;;;;;;;;;21.40;86.90;;;;;;4987967;28;19918;-77
2022/06/24 06:42:25;;;;;;;;;;;21.40;87.10;;;;;;4970319;28;19918;-77
2022/06/24 06:44:51;;;;;;;;;;;21.30;86.90;;;;;;4967782;28;19914;-77
2022/06/24 06:47:16;;;;;;;;;;;21.30;86.80;;;;;;4968277;28;19925;-77
2022/06/24 06:49:42;;;;;;;;;;;21.30;86.80;;;;;;4985493;28;20430;-78
2022/06/24 06:52:07;;;;;;;;;;;21.50;86.10;;;;;;4986127;28;19956;-78
2022/06/24 06:54:33;;;;;;;;;;;21.50;85.30;;;;;;4987723;28;19913;-79
2022/06/24 06:56:58;;;;;;;;;;;21.60;85.30;;;;;;4990925;28;19945;-79
2022/06/24 06:59:24;;;;;;;;;;;21.80;84.30;;;;;;4972653;28;19946;-79
2022/06/24 07:01:49;;;;;;;;;;;21.80;83.70;;;;;;4985785;28;19943;-79
2022/06/24 07:04:15;;;;;;;;;;;21.90;83.30;;;;;;4981614;28;20284;-79
2022/06/24 07:06:40;;;;;;;;;;;21.90;83.30;;;;;;4988249;28;20301;-78
2022/06/24 07:09:06;;;;;;;;;;;21.90;83.70;;;;;;4989449;28;19937;-78
2022/06/24 07:11:31;;;;;;;;;;;22.00;83.10;;;;;;4987383;28;19917;-78
2022/06/24 07:13:57;;;;;;;;;;;22.00;82.20;;;;;;4988655;28;19921;-78
2022/06/24 07:16:22;;;;;;;;;;;22.20;81.80;;;;;;4990359;28;20355;-80
2022/06/24 07:18:48;;;;;;;;;;;22.20;81.40;;;;;;4989282;28;19932;-78
2022/06/24 07:21:14;;;;;;;;;;;22.20;81.80;;;;;;4990667;28;19996;-78
2022/06/24 07:23:39;;;;;;;;;;;22.30;79.80;;;;;;4994473;28;19917;-78
2022/06/24 07:26:05;;;;;;;;;;;22.50;79.70;;;;;;5002065;28;19914;-77
2022/06/24 07:28:31;;;;;;;;;;;22.50;78.60;;;;;;4993009;28;20236;-77
2022/06/24 07:30:56;;;;;;;;;;;22.60;79.00;;;;;;4991275;28;20318;-77
2022/06/24 07:33:23;;;;;;;;;;;22.50;78.10;;;;;;4973656;28;19914;-77
2022/06/24 07:35:49;;;;;;;;;;;22.50;78.70;;;;;;4986483;28;20741;-76
2022/06/24 07:38:15;;;;;;;;;;;22.50;79.30;;;;;;4972197;28;20008;-77
2022/06/24 07:40:41;;;;;;;;;;;22.60;77.90;;;;;;4967982;28;20331;-76
2022/06/24 07:43:07;;;;;;;;;;;22.60;78.00;;;;;;4991914;28;20016;-77
2022/06/24 07:45:33;;;;;;;;;;;22.70;77.10;;;;;;4971427;28;21221;-77
2022/06/24 07:47:58;;;;;;;;;;;22.70;76.90;;;;;;4989137;28;19914;-76
2022/06/24 07:50:24;;;;;;;;;;;22.70;77.50;;;;;;4988704;28;19914;-76
2022/06/24 07:52:49;;;;;;;;;;;22.70;78.00;;;;;;4981687;28;19918;-77
2022/06/24 07:57:59;;;;;;;;;;;22.80;76.60;;;;;;4986943;28;19949;-77
2022/06/24 08:00:24;;;;;;;;;;;22.90;75.50;;;;;;4986204;28;19914;-77
2022/06/24 08:02:49;;;;;;;;;;;23.00;75.10;;;;;;4988636;28;19932;-77
2022/06/24 08:05:15;;;;;;;;;;;23.00;74.50;;;;;;4992307;28;19968;-76
2022/06/24 08:07:43;;;;;;;;;;;23.00;74.30;;;;;;4990800;28;19914;-76
2022/06/24 08:10:09;;;;;;;;;;;23.10;74.50;;;;;;4969741;28;20517;-76
2022/06/24 08:12:34;;;;;;;;;;;23.10;74.60;;;;;;4991090;28;20012;-78
2022/06/24 08:15:00;;;;;;;;;;;23.30;73.60;;;;;;4991471;28;19917;-77
2022/06/24 08:17:25;;;;;;;;;;;23.50;73.30;;;;;;4988797;28;19921;-77
2022/06/24 08:19:51;;;;;;;;;;;23.80;72.50;;;;;;4993203;28;19928;-77
2022/06/24 08:22:16;;;;;;;;;;;24.00;72.50;;;;;;4987919;28;19914;-78
2022/06/24 08:24:42;;;;;;;;;;;24.20;72.40;;;;;;4976733;28;20390;-78
2022/06/24 08:27:07;;;;;;;;;;;24.10;70.50;;;;;;4977903;28;20012;-78
2022/06/24 08:29:33;;;;;;;;;;;24.00;71.60;;;;;;4986717;28;19977;-78
2022/06/24 08:31:58;;;;;;;;;;;23.90;70.90;;;;;;4993724;28;19920;-78
2022/06/24 08:34:24;;;;;;;;;;;23.60;71.40;;;;;;4967697;28;19922;-78
2022/06/24 08:36:50;;;;;;;;;;;23.60;71.90;;;;;;4971359;28;19940;-79
2022/06/24 08:39:15;;;;;;;;;;;23.40;72.20;;;;;;4992429;28;19914;-78
2022/06/24 08:41:45;;;;;;;;;;;23.20;73.10;;;;;;4994248;28;19944;-80
2022/06/24 08:44:11;;;;;;;;;;;23.10;73.30;;;;;;4993736;28;20318;-80
2022/06/24 08:46:39;;;;;;;;;;;22.80;73.70;;;;;;4994133;28;19922;-79
2022/06/24 08:49:04;;;;;;;;;;;22.80;73.70;;;;;;4979889;28;19992;-80
2022/06/24 08:51:30;;;;;;;;;;;22.90;74.40;;;;;;4992513;28;20377;-80
2022/06/24 08:53:57;;;;;;;;;;;22.80;73.50;;;;;;4991293;28;19913;-80
2022/06/24 08:56:23;;;;;;;;;;;22.70;73.80;;;;;;4998808;28;19941;-80
2022/06/24 08:58:48;;;;;;;;;;;22.70;74.10;;;;;;5002225;28;19941;-81
2022/06/24 09:01:17;;;;;;;;;;;22.60;74.80;;;;;;4993100;28;19921;-80
2022/06/24 09:03:44;;;;;;;;;;;22.70;72.30;;;;;;4991994;28;19930;-78
2022/06/24 09:06:10;;;;;;;;;;;22.50;73.50;;;;;;4978914;28;19938;-77
2022/06/24 09:08:35;;;;;;;;;;;22.50;73.90;;;;;;4988954;28;19917;-77
2022/06/24 09:11:10;;;;;;;;;;;22.60;73.80;;;;;;4995957;28;19960;-79
2022/06/24 09:13:45;;;;;;;;;;;22.60;73.00;;;;;;4999822;28;20258;-79
2022/06/24 09:16:12;;;;;;;;;;;22.50;72.30;;;;;;4999959;28;20390;-80
2022/06/24 09:18:38;;;;;;;;;;;22.40;73.50;;;;;;4998115;28;20000;-80
2022/06/24 09:21:03;;;;;;;;;;;22.40;73.30;;;;;;4982248;28;19925;-79
2022/06/24 09:23:29;;;;;;;;;;;22.40;73.00;;;;;;4981505;28;19926;-80
2022/06/24 09:26:02;;;;;;;;;;;22.30;73.50;;;;;;4991764;28;19925;-79
2022/06/24 09:28:29;;;;;;;;;;;22.20;74.80;;;;;;5001282;28;19920;-80
2022/06/24 09:31:02;;;;;;;;;;;22.00;74.70;;;;;;5000926;28;20001;-80
2022/06/24 09:33:27;;;;;;;;;;;22.10;74.40;;;;;;4992616;28;19940;-80
2022/06/24 09:36:00;;;;;;;;;;;22.10;74.50;;;;;;4983685;28;19934;-80
2022/06/24 09:38:26;;;;;;;;;;;22.20;74.20;;;;;;4996954;28;19921;-81
2022/06/24 09:40:58;;;;;;;;;;;22.30;74.60;;;;;;4994056;28;19914;-81
2022/06/24 09:43:27;;;;;;;;;;;22.20;74.90;;;;;;4991127;28;19917;-80
2022/06/24 09:45:53;;;;;;;;;;;22.10;77.60;;;;;;4987517;28;19918;-79
2022/06/24 09:48:28;;;;;;;;;;;21.90;78.20;;;;;;4988725;28;19964;-79
2022/06/24 09:50:55;;;;;;;;;;;21.80;80.00;;;;;;4990185;28;20703;-79
2022/06/24 09:53:21;;;;;;;;;;;21.50;80.40;;;;;;4994498;28;20286;-79
2022/06/24 09:55:46;;;;;;;;;;;21.20;80.50;;;;;;4972732;28;20305;-79
2022/06/24 09:58:13;;;;;;;;;;;21.00;81.90;;;;;;4991932;28;19914;-81
2022/06/24 10:00:41;;;;;;;;;;;20.70;84.50;;;;;;4990681;28;19914;-79
2022/06/24 10:03:09;;;;;;;;;;;20.50;84.80;;;;;;4992251;28;19917;-81
2022/06/24 10:05:38;;;;;;;;;;;20.50;85.80;;;;;;4991621;28;19921;-80
2022/06/24 10:08:05;;;;;;;;;;;20.50;85.70;;;;;;4992126;28;19917;-79
2022/06/24 10:10:33;;;;;;;;;;;20.50;85.70;;;;;;4993510;28;19920;-79
2022/06/24 10:13:01;;;;;;;;;;;20.50;85.90;;;;;;4976080;28;19929;-81
2022/06/24 10:15:27;;;;;;;;;;;20.60;86.10;;;;;;4998704;28;19963;-78
2022/06/24 10:17:53;;;;;;;;;;;20.70;86.30;;;;;;4987764;28;20390;-79
2022/06/24 10:20:19;;;;;;;;;;;20.80;85.60;;;;;;4992891;28;19918;-79
2022/06/24 10:22:46;;;;;;;;;;;21.10;85.10;;;;;;4987400;28;19922;-79
2022/06/24 10:25:20;;;;;;;;;;;21.30;85.30;;;;;;4992705;28;19918;-79
2022/06/24 10:27:58;;;;;;;;;;;21.50;84.10;;;;;;4989788;28;19964;-82
2022/06/24 10:30:54;;;;;;;;;;;21.70;82.90;;;;;;4988664;28;19975;-82
2022/06/24 10:33:21;;;;;;;;;;;22.00;81.20;;;;;;4988366;28;19910;-82
2022/06/24 10:35:56;;;;;;;;;;;22.10;81.10;;;;;;4993484;28;20008;-79
2022/06/24 10:38:26;;;;;;;;;;;22.20;80.00;;;;;;4988933;28;19910;-81
2022/06/24 10:40:52;;;;;;;;;;;22.30;79.50;;;;;;4981040;28;19949;-79
2022/06/24 10:43:34;;;;;;;;;;;22.50;80.60;;;;;;4989198;28;19968;-82
2022/06/24 10:46:11;;;;;;;;;;;22.50;79.40;;;;;;4992335;28;19910;-82
2022/06/24 10:48:42;;;;;;;;;;;22.60;78.80;;;;;;4989213;28;19913;-83
2022/06/24 10:51:14;;;;;;;;;;;22.90;79.40;;;;;;4991800;28;19936;-82
2022/06/24 10:53:58;;;;;;;;;;;23.10;78.20;;;;;;5010245;28;19909;-82
2022/06/24 10:56:39;;;;;;;;;;;23.20;76.50;;;;;;4985852;28;19918;-81
2022/06/24 10:59:04;;;;;;;;;;;23.40;75.70;;;;;;4984689;28;19920;-82
2022/06/24 11:01:30;;;;;;;;;;;23.40;73.80;;;;;;4973461;28;20592;-82
2022/06/24 11:03:56;;;;;;;;;;;23.30;75.20;;;;;;4972595;28;19914;-82
2022/06/24 11:06:22;;;;;;;;;;;23.30;75.40;;;;;;4982960;28;20373;-81
2022/06/24 11:08:47;;;;;;;;;;;23.20;73.70;;;;;;4985090;28;19921;-81
2022/06/24 11:11:25;;;;;;;;;;;23.40;76.30;;;;;;4992128;28;19913;-81
2022/06/24 11:13:51;;;;;;;;;;;23.50;74.60;;;;;;4985007;28;19924;-81
2022/06/24 11:16:17;;;;;;;;;;;23.60;74.30;;;;;;4974807;28;20028;-81
2022/06/24 11:18:43;;;;;;;;;;;23.80;74.40;;;;;;4988370;28;19953;-81
2022/06/24 11:21:09;;;;;;;;;;;23.70;71.80;;;;;;4993717;28;19922;-80
2022/06/24 11:23:35;;;;;;;;;;;23.80;70.70;;;;;;4993845;28;19926;-80
2022/06/24 11:26:03;;;;;;;;;;;23.70;71.10;;;;;;4991023;28;19938;-80
2022/06/24 11:28:30;;;;;;;;;;;23.50;72.50;;;;;;4989858;28;19926;-79
2022/06/24 11:31:12;;;;;;;;;;;23.60;73.20;;;;;;4991559;28;19914;-80
2022/06/24 11:33:37;;;;;;;;;;;23.60;73.20;;;;;;4996258;28;19970;-80
2022/06/24 11:36:03;;;;;;;;;;;23.40;72.90;;;;;;4989487;28;19925;-80
2022/06/24 11:38:28;;;;;;;;;;;23.30;72.00;;;;;;4993834;28;19948;-79
2022/06/24 11:40:54;;;;;;;;;;;23.30;72.70;;;;;;4992900;28;19993;-79
2022/06/24 11:43:19;;;;;;;;;;;23.30;73.20;;;;;;4974407;28;19918;-78
2022/06/24 11:45:46;;;;;;;;;;;23.30;72.70;;;;;;4991007;28;20345;-79
2022/06/24 11:48:17;;;;;;;;;;;23.20;72.20;;;;;;4991260;28;19960;-79
2022/06/24 11:50:43;;;;;;;;;;;23.30;72.90;;;;;;4980379;28;19920;-79
2022/06/24 11:53:08;;;;;;;;;;;23.60;73.50;;;;;;4999693;28;19914;-79
2022/06/24 11:55:36;;;;;;;;;;;23.60;72.30;;;;;;4996882;28;19930;-79
2022/06/24 11:58:03;;;;;;;;;;;23.60;71.50;;;;;;4994958;28;19969;-79
2022/06/24 12:00:32;;;;;;;;;;;23.50;71.50;;;;;;4978180;28;19932;-80
2022/06/24 12:02:58;;;;;;;;;;;23.50;71.60;;;;;;4991513;28;19918;-81
2022/06/24 12:05:26;;;;;;;;;;;23.50;72.30;;;;;;4974539;28;19921;-79
2022/06/24 12:07:51;;;;;;;;;;;23.50;70.40;;;;;;4986753;28;20208;-80
2022/06/24 12:10:17;;;;;;;;;;;23.50;72.00;;;;;;4992733;28;19925;-79
2022/06/24 12:13:05;;;;;;;;;;;23.40;71.10;;;;;;4973876;28;19914;-80
2022/06/24 12:15:31;;;;;;;;;;;23.30;70.60;;;;;;4993068;28;19921;-80
2022/06/24 12:17:57;;;;;;;;;;;23.50;69.90;;;;;;4996080;28;20000;-79
2022/06/24 12:20:26;;;;;;;;;;;23.20;70.00;;;;;;4990572;28;19957;-81
2022/06/24 12:23:10;;;;;;;;;;;23.30;68.40;;;;;;4997565;28;19932;-81
2022/06/24 12:25:40;;;;;;;;;;;23.20;68.30;;;;;;4997354;28;19914;-81
2022/06/24 12:28:12;;;;;;;;;;;23.20;70.30;;;;;;4997696;28;19914;-81
2022/06/24 12:30:37;;;;;;;;;;;23.50;69.70;;;;;;5000130;28;19928;-80
2022/06/24 12:33:03;;;;;;;;;;;23.80;67.80;;;;;;4998305;28;19922;-78
2022/06/24 12:35:37;;;;;;;;;;;24.00;66.60;;;;;;5000437;28;19920;-78
2022/06/24 12:38:04;;;;;;;;;;;24.00;65.70;;;;;;4993378;28;19977;-77
2022/06/24 12:40:29;;;;;;;;;;;24.00;67.30;;;;;;4993288;28;19968;-78
2022/06/24 12:43:08;;;;;;;;;;;24.10;66.30;;;;;;5000212;28;19921;-77
2022/06/24 12:45:37;;;;;;;;;;;24.20;65.50;;;;;;4981911;28;20000;-79
2022/06/24 12:50:57;;;;;;;;;;;24.70;64.40;;;;;;4994468;28;20025;-79
2022/06/24 12:53:22;;;;;;;;;;;24.80;64.60;;;;;;4984675;28;19918;-79
2022/06/24 12:55:49;;;;;;;;;;;24.90;64.50;;;;;;4999926;28;19918;-80
2022/06/24 12:58:14;;;;;;;;;;;24.90;63.40;;;;;;5004103;28;19965;-79
2022/06/24 13:00:40;;;;;;;;;;;24.60;63.10;;;;;;4990849;28;19937;-79
2022/06/24 13:03:05;;;;;;;;;;;24.60;63.10;;;;;;4994584;28;19918;-79
2022/06/24 13:05:31;;;;;;;;;;;24.60;65.30;;;;;;4995527;28;20228;-78
2022/06/24 13:07:56;;;;;;;;;;;24.70;62.50;;;;;;4990488;28;19914;-78
2022/06/24 13:10:22;;;;;;;;;;;24.90;63.20;;;;;;4985623;28;19917;-78
2022/06/24 13:12:48;;;;;;;;;;;25.10;62.60;;;;;;4995076;28;19914;-79
2022/06/24 13:15:14;;;;;;;;;;;25.10;65.80;;;;;;4976675;28;19914;-80
2022/06/24 13:17:40;;;;;;;;;;;25.00;65.10;;;;;;4997986;28;19963;-80
2022/06/24 13:20:07;;;;;;;;;;;25.10;63.50;;;;;;5001457;28;19925;-80
2022/06/24 13:22:33;;;;;;;;;;;25.20;64.20;;;;;;5000814;28;19951;-80
2022/06/24 13:24:59;;;;;;;;;;;25.30;64.10;;;;;;5003690;28;20397;-80
2022/06/24 13:27:24;;;;;;;;;;;25.50;62.10;;;;;;5000805;28;19944;-80
2022/06/24 13:29:50;;;;;;;;;;;25.60;61.00;;;;;;5001450;28;19910;-79
2022/06/24 13:32:15;;;;;;;;;;;25.60;60.20;;;;;;5001732;28;19914;-79
2022/06/24 13:34:41;;;;;;;;;;;25.60;60.00;;;;;;5002537;28;20282;-80
2022/06/24 13:37:06;;;;;;;;;;;25.50;60.10;;;;;;5002061;28;19937;-80
2022/06/24 13:39:31;;;;;;;;;;;25.50;60.50;;;;;;4985132;28;19952;-79
2022/06/24 13:41:57;;;;;;;;;;;25.30;60.60;;;;;;5001109;28;19925;-79
2022/06/24 13:44:23;;;;;;;;;;;25.40;61.10;;;;;;5000276;28;19930;-78
2022/06/24 13:46:52;;;;;;;;;;;25.50;62.00;;;;;;5004251;28;19918;-80
2022/06/24 13:49:18;;;;;;;;;;;25.40;61.60;;;;;;5002822;28;19985;-80
2022/06/24 13:51:43;;;;;;;;;;;25.30;62.10;;;;;;5000125;28;20043;-79
2022/06/24 13:54:09;;;;;;;;;;;25.30;64.30;;;;;;5000809;28;19964;-80
2022/06/24 13:56:34;;;;;;;;;;;25.10;63.90;;;;;;4994935;28;19921;-80
2022/06/24 13:59:00;;;;;;;;;;;25.30;63.60;;;;;;4978605;28;20343;-78
2022/06/24 14:01:26;;;;;;;;;;;25.40;63.30;;;;;;4988759;28;19924;-78
2022/06/24 14:03:51;;;;;;;;;;;25.40;61.20;;;;;;4996359;28;20220;-78
2022/06/24 14:06:17;;;;;;;;;;;25.50;61.30;;;;;;4998251;28;19914;-78
2022/06/24 14:08:43;;;;;;;;;;;25.60;62.10;;;;;;4996806;28;19917;-78
2022/06/24 14:11:08;;;;;;;;;;;25.70;61.40;;;;;;4998280;28;19918;-78
2022/06/24 14:13:34;;;;;;;;;;;26.00;58.10;;;;;;4996704;28;20335;-79
2022/06/24 14:16:00;;;;;;;;;;;26.00;60.30;;;;;;4999079;28;19985;-79
2022/06/24 14:18:25;;;;;;;;;;;25.80;59.30;;;;;;4995408;28;19917;-77
2022/06/24 14:20:51;;;;;;;;;;;25.70;59.80;;;;;;4996907;28;19924;-77
2022/06/24 14:26:01;;;;;;;;;;;25.90;59.10;;;;;;4999091;28;19925;-77
2022/06/24 14:28:26;;;;;;;;;;;26.00;60.00;;;;;;4995483;28;19914;-77